METAR Data
IDs: Format: Raw Decoded Include TAF

Data at: 1532 UTC 24 Aug 2019

PAKN 241454Z AUTO 15005KT 6SM BR OVC002 06/06 A2974 RMK AO2 SLP069 T00560056 53005 TSNO
PAKN 241450Z AUTO 15004KT 3SM BR OVC002 06/06 A2974 RMK AO2 TSNO
PAKN 241447Z AUTO 16005KT 1 3/4SM BR OVC002 06/06 A2974 RMK AO2 T00560056 TSNO
PAKN 241420Z AUTO 16006KT 1/2SM R12/3000V5500FT FG VV002 06/06 A2973 RMK AO2 T00560056 TSNO
PAKN 241406Z AUTO 15006KT 1 1/2SM R12/5500VP6000FT BR OVC002 06/06 A2973 RMK AO2 T00610056 TSNO
PAKN 241354Z AUTO 16006KT 3/4SM R12/4000VP6000FT BR VV002 06/06 A2973 RMK AO2 SLP066 T00610056 TSNO
PAKN 241343Z AUTO 16006KT 1 3/4SM R12/6000VP6000FT BR OVC002 06/06 A2973 RMK AO2 T00610056 TSNO
PAKN 241332Z AUTO 16006KT 3SM BR OVC002 06/06 A2973 RMK AO2 T00610056 TSNO
PAKN 241307Z AUTO 16006KT 1SM R12/P6000FT BR VV002 06/06 A2972 RMK AO2 T00560056 TSNO
PAKN 241254Z AUTO 16006KT 3/4SM R12/4000VP6000FT BR VV002 06/06 A2972 RMK AO2 SLP064 T00610056 TSNO
PAKN 241221Z AUTO 16006KT 1 1/2SM BR BKN002 06/06 A2972 RMK AO2 T00610061 TSNO
PAKN 241217Z AUTO 16006KT 2 1/2SM BR SCT002 06/06 A2972 RMK AO2 T00610056 TSNO
PAKN 241154Z 15004KT 7SM FEW080 06/06 A2972 RMK AO2 SLP064 T00610056 10122 20061 53007
PAKN 241054Z 14005KT 8SM FEW090 07/07 A2971 RMK AO2 SLP061 T00720067
PAKN 240954Z 15004KT 9SM FEW090 08/07 A2970 RMK AO2 SLP057 T00780072
PAKN 240854Z 16004KT 8SM FEW090 09/08 A2970 RMK AO2 SLP057 T00890083 402060078 51012
PAKN 240754Z 18006KT 9SM FEW050 FEW090 09/08 A2969 RMK AO2 SLP053 T00940083
PAKN 240654Z 20005KT 9SM FEW050 FEW090 11/09 A2968 RMK AO2 SLP050 T01060094
PAKN 240554Z 22005KT 8SM FEW050 FEW090 SCT200 12/09 A2966 RMK AO2 SLP045 T01220094 10206 20122 53006
PAKN 240454Z 25006KT 10SM FEW045 SCT200 15/09 A2966 RMK AO2 SLP043 T01500089
PAKN 240354Z 24010KT 9SM CLR 16/07 A2965 RMK AO2 SLP039 T01610072
PAKN 240254Z 24010KT 9SM CLR 18/07 A2964 RMK AO2 SLP038 T01780072 52001
PAKN 240154Z 25011KT 9SM CLR 19/07 A2964 RMK AO2 SLP037 T01890072
PAKN 240054Z 25011KT 9SM CLR 19/08 A2964 RMK AO2 SLP038 T01940078
PAKN 232354Z 25010KT 9SM SCT045 20/08 A2964 RMK AO2 SLP037 T02000083 10206 20117 58004
PAKN 232254Z 26007KT 210V300 9SM FEW045 21/08 A2965 RMK AO2 SLP039 T02060083
PAKN 232154Z 27010KT 9SM CLR 20/08 A2965 RMK AO2 SLP041 T02000078
PAKN 232054Z 27006KT 9SM CLR 19/08 A2965 RMK AO2 SLP041 T01890083 53000
PAKN 231954Z 27008KT 9SM FEW018 17/11 A2965 RMK AO2 SLP042 T01720106
PAKN 231854Z 22005KT 5SM BR SCT004 13/13 A2965 RMK AO2 SLP041 T01330128
PAKN 231825Z 21004KT 3SM BR SCT002 13/12 A2965 RMK AO2 T01280122
PAKN 231808Z 18005KT 2SM BR OVC002 12/12 A2965 RMK VIS SE 10SM
PAKN 231805Z 19006KT 2SM BR OVC002 12/12 A2965 RMK AO2 T01170117
PAKN 231754Z 20005KT 1/2SM R12/2000V4000FT FG VV002 12/12 A2965 RMK AO2 SLP041 T01170117 10117 20078 51002
PAKN 231751Z 20006KT 1/4SM R12/2000V3000FT FG VV002 12/12 A2965 RMK AO2
PAKN 231744Z 19006KT 1/4SM R12/1800V2200FT FG VV002 11/11 A2965 RMK AO2 T01110111
PAKN 231732Z 18006KT 1/2SM R12/2400V3500FT FG VV002 12/11 A2965 RMK AO2 T01170111
PAKN 231721Z 18005KT 1/4SM R12/1800V2400FT FG VV002 11/11 A2965 RMK AO2 T01110111
PAKN 231654Z 17006KT 1/4SM R12/1400V1600FT FG VV002 11/11 A2965 RMK AO2 SLP040 T01110106
PAKN 231554Z AUTO 17006KT M1/4SM R12/1000FT FG VV002 10/10 A2965 RMK AO2 SLP039 T01000100 TSNO
PAKN 231454Z AUTO 17005KT 1/4SM R12/1200V1400FT FG VV002 09/09 A2965 RMK AO2 SLP039 T00890089 53001 TSNO
PAKN 231425Z AUTO 16006KT 1/4SM R12/1600V1800FT FG VV002 08/08 A2965 RMK AO2 T00830083 TSNO
PAKN 231414Z AUTO 16005KT 1/4SM R12/1600V4000FT FG VV002 08/08 A2965 RMK AO2 T00830078 TSNO
PAKN 231404Z AUTO 16006KT 1 3/4SM R12/5000VP6000FT BR BKN002 08/08 A2965 RMK AO2 T00780078 TSNO
PAKN 231354Z AUTO 16007KT 7SM FEW003 08/07 A2964 RMK AO2 SLP038 T00780072 TSNO
PAKN 231254Z AUTO 14006KT 7SM FEW090 08/07 A2964 RMK AO2 SLP037 T00780072 TSNO
PAKN 231154Z 15005KT 6SM BR SCT090 08/07 A2964 RMK AO2 SLP037 T00780072 10122 20067 58002
PAKN 231054Z 15004KT 7SM FEW095 08/08 A2965 RMK AO2 SLP039 T00830078
PAKN 230954Z 15008KT 8SM SCT085 09/08 A2965 RMK AO2 SLP040 T00940083
PAKN 230854Z 18005KT 10SM SCT080 09/08 A2965 RMK AO2 SLP039 T00890083 401940061 53008
PAKN 230754Z 17005KT 10SM SCT110 09/08 A2964 RMK AO2 SLP036 T00940078
PAKN 230654Z 00000KT 10SM SCT100 SCT210 09/08 A2963 RMK AO2 SLP035 T00940083
PAKN 230554Z 13005KT 10SM FEW040 SCT100 BKN210 12/09 A2963 RMK AO2 SLP032 T01220089 10189 20122 51006
PAKN 230454Z 12005KT 10SM FEW045 SCT095 BKN200 16/08 A2962 RMK AO2 SLP030 T01560083
PAKN 230354Z 12006KT 10SM OVC090 16/09 A2962 RMK AO2 SLP028 T01610089